<?xml version="1.0" encoding="UTF-8" standalone="no" ?>
<gpx xmlns="http://www.topografix.com/GPX/1/1" xmlns:xsi="http://www.w3.org/2001/XMLSchema-instance" xsi:schemaLocation="http://www.topografix.com/GPX/1/1 http://www.topografix.com/GPX/1/1/gpx.xsd" version="1.1" creator="VisuGPX - https://www.visugpx.com">
  <metadata>
    <name>SICILE - PEDESTRE - Îles Eoliennes - Lipari - Pointe sud.</name>
    <desc><![CDATA[Randonnée sans balisage.]]></desc>
  </metadata>
  <wpt lat="38.45875" lon="14.95732">
    <ele>-11.890503</ele>
    <name><![CDATA[Hotel Carasco]]></name>
    <desc><![CDATA[10-SEP-13 18:40:02]]></desc>
    <cmt><![CDATA[10-SEP-13 18:40:02]]></cmt>
  </wpt>
  <trk>
    <name><![CDATA[ACTIVE LOG 002]]></name>
    <trkseg>
      <trkpt lat="38.45917" lon="14.95648">
        <ele>37.628662</ele>
        <time>2013-09-12T14:00:26Z</time>
      </trkpt>
      <trkpt lat="38.45915" lon="14.95648">
        <ele>38.590088</ele>
        <time>2013-09-12T14:00:28Z</time>
      </trkpt>
      <trkpt lat="38.45898" lon="14.95652">
        <ele>41.473999</ele>
        <time>2013-09-12T14:00:43Z</time>
      </trkpt>
      <trkpt lat="38.45897" lon="14.95652">
        <ele>41.473999</ele>
        <time>2013-09-12T14:00:44Z</time>
      </trkpt>
      <trkpt lat="38.45883" lon="14.95651">
        <ele>45.319214</ele>
        <time>2013-09-12T14:00:57Z</time>
      </trkpt>
    </trkseg>
  </trk>
  <trk>
    <name><![CDATA[ACTIVE LOG 003]]></name>
    <trkseg>
      <trkpt lat="38.45868" lon="14.95651">
        <ele>45.799927</ele>
        <time>2013-09-12T14:01:12Z</time>
      </trkpt>
      <trkpt lat="38.45853" lon="14.95647">
        <ele>47.722534</ele>
        <time>2013-09-12T14:01:30Z</time>
      </trkpt>
      <trkpt lat="38.45852" lon="14.95646">
        <ele>47.722534</ele>
        <time>2013-09-12T14:01:34Z</time>
      </trkpt>
      <trkpt lat="38.45847" lon="14.95639">
        <ele>48.203369</ele>
        <time>2013-09-12T14:01:40Z</time>
      </trkpt>
      <trkpt lat="38.45843" lon="14.95631">
        <ele>50.125977</ele>
        <time>2013-09-12T14:01:46Z</time>
      </trkpt>
      <trkpt lat="38.45842" lon="14.95626">
        <ele>50.125977</ele>
        <time>2013-09-12T14:01:49Z</time>
      </trkpt>
      <trkpt lat="38.45841" lon="14.95594">
        <ele>50.125977</ele>
        <time>2013-09-12T14:02:10Z</time>
      </trkpt>
      <trkpt lat="38.45837" lon="14.95571">
        <ele>51.567871</ele>
        <time>2013-09-12T14:02:25Z</time>
      </trkpt>
      <trkpt lat="38.45837" lon="14.95569">
        <ele>52.048584</ele>
        <time>2013-09-12T14:02:26Z</time>
      </trkpt>
      <trkpt lat="38.45827" lon="14.95557">
        <ele>53.490479</ele>
        <time>2013-09-12T14:02:38Z</time>
      </trkpt>
      <trkpt lat="38.45809" lon="14.9556">
        <ele>54.932373</ele>
        <time>2013-09-12T14:02:55Z</time>
      </trkpt>
      <trkpt lat="38.45802" lon="14.95581">
        <ele>55.413086</ele>
        <time>2013-09-12T14:03:11Z</time>
      </trkpt>
      <trkpt lat="38.45804" lon="14.95613">
        <ele>58.297119</ele>
        <time>2013-09-12T14:03:30Z</time>
      </trkpt>
      <trkpt lat="38.45805" lon="14.95635">
        <ele>61.18103</ele>
        <time>2013-09-12T14:03:43Z</time>
      </trkpt>
      <trkpt lat="38.45802" lon="14.95667">
        <ele>62.142334</ele>
        <time>2013-09-12T14:04:02Z</time>
      </trkpt>
      <trkpt lat="38.45794" lon="14.95708">
        <ele>62.142334</ele>
        <time>2013-09-12T14:04:27Z</time>
      </trkpt>
      <trkpt lat="38.45784" lon="14.95725">
        <ele>62.622925</ele>
        <time>2013-09-12T14:04:43Z</time>
      </trkpt>
      <trkpt lat="38.45774" lon="14.95738">
        <ele>64.065063</ele>
        <time>2013-09-12T14:04:55Z</time>
      </trkpt>
      <trkpt lat="38.45745" lon="14.95754">
        <ele>64.545654</ele>
        <time>2013-09-12T14:05:19Z</time>
      </trkpt>
      <trkpt lat="38.45721" lon="14.95749">
        <ele>65.987671</ele>
        <time>2013-09-12T14:05:38Z</time>
      </trkpt>
      <trkpt lat="38.45691" lon="14.95736">
        <ele>66.948975</ele>
        <time>2013-09-12T14:06:02Z</time>
      </trkpt>
      <trkpt lat="38.45663" lon="14.95723">
        <ele>67.910278</ele>
        <time>2013-09-12T14:06:24Z</time>
      </trkpt>
      <trkpt lat="38.45635" lon="14.95709">
        <ele>68.871582</ele>
        <time>2013-09-12T14:06:46Z</time>
      </trkpt>
      <trkpt lat="38.4561" lon="14.95701">
        <ele>69.832886</ele>
        <time>2013-09-12T14:07:05Z</time>
      </trkpt>
      <trkpt lat="38.45587" lon="14.95698">
        <ele>71.755493</ele>
        <time>2013-09-12T14:07:23Z</time>
      </trkpt>
      <trkpt lat="38.45562" lon="14.95695">
        <ele>73.197632</ele>
        <time>2013-09-12T14:07:42Z</time>
      </trkpt>
      <trkpt lat="38.45549" lon="14.95693">
        <ele>73.678223</ele>
        <time>2013-09-12T14:07:53Z</time>
      </trkpt>
      <trkpt lat="38.45546" lon="14.95689">
        <ele>74.158813</ele>
        <time>2013-09-12T14:07:57Z</time>
      </trkpt>
      <trkpt lat="38.4553" lon="14.95686">
        <ele>78.004028</ele>
        <time>2013-09-12T14:08:12Z</time>
      </trkpt>
      <trkpt lat="38.45529" lon="14.95685">
        <ele>78.004028</ele>
        <time>2013-09-12T14:08:13Z</time>
      </trkpt>
      <trkpt lat="38.45513" lon="14.95689">
        <ele>79.446045</ele>
        <time>2013-09-12T14:08:27Z</time>
      </trkpt>
      <trkpt lat="38.45505" lon="14.95694">
        <ele>79.926636</ele>
        <time>2013-09-12T14:08:35Z</time>
      </trkpt>
      <trkpt lat="38.45492" lon="14.95712">
        <ele>81.849365</ele>
        <time>2013-09-12T14:08:52Z</time>
      </trkpt>
      <trkpt lat="38.45484" lon="14.9573">
        <ele>84.733398</ele>
        <time>2013-09-12T14:09:07Z</time>
      </trkpt>
      <trkpt lat="38.45474" lon="14.95752">
        <ele>87.136597</ele>
        <time>2013-09-12T14:09:24Z</time>
      </trkpt>
      <trkpt lat="38.45466" lon="14.95771">
        <ele>90.501343</ele>
        <time>2013-09-12T14:09:39Z</time>
      </trkpt>
      <trkpt lat="38.45455" lon="14.95791">
        <ele>92.42395</ele>
        <time>2013-09-12T14:09:56Z</time>
      </trkpt>
      <trkpt lat="38.45448" lon="14.95801">
        <ele>93.865845</ele>
        <time>2013-09-12T14:10:06Z</time>
      </trkpt>
      <trkpt lat="38.45447" lon="14.95805">
        <ele>94.827148</ele>
        <time>2013-09-12T14:10:10Z</time>
      </trkpt>
      <trkpt lat="38.45448" lon="14.95811">
        <ele>94.827148</ele>
        <time>2013-09-12T14:10:17Z</time>
      </trkpt>
      <trkpt lat="38.45439" lon="14.95829">
        <ele>97.230469</ele>
        <time>2013-09-12T14:10:34Z</time>
      </trkpt>
      <trkpt lat="38.45417" lon="14.95841">
        <ele>100.595093</ele>
        <time>2013-09-12T14:10:55Z</time>
      </trkpt>
      <trkpt lat="38.45415" lon="14.95841">
        <ele>100.595093</ele>
        <time>2013-09-12T14:10:56Z</time>
      </trkpt>
      <trkpt lat="38.45396" lon="14.95843">
        <ele>102.037109</ele>
        <time>2013-09-12T14:11:13Z</time>
      </trkpt>
      <trkpt lat="38.45389" lon="14.95839">
        <ele>103.479004</ele>
        <time>2013-09-12T14:11:19Z</time>
      </trkpt>
      <trkpt lat="38.45364" lon="14.9584">
        <ele>105.401733</ele>
        <time>2013-09-12T14:11:39Z</time>
      </trkpt>
      <trkpt lat="38.45338" lon="14.95866">
        <ele>106.363037</ele>
        <time>2013-09-12T14:12:02Z</time>
      </trkpt>
      <trkpt lat="38.45323" lon="14.95901">
        <ele>106.843628</ele>
        <time>2013-09-12T14:12:25Z</time>
      </trkpt>
      <trkpt lat="38.45307" lon="14.95922">
        <ele>106.843628</ele>
        <time>2013-09-12T14:12:43Z</time>
      </trkpt>
      <trkpt lat="38.45283" lon="14.95945">
        <ele>107.324341</ele>
        <time>2013-09-12T14:13:06Z</time>
      </trkpt>
      <trkpt lat="38.45268" lon="14.95951">
        <ele>106.843628</ele>
        <time>2013-09-12T14:13:18Z</time>
      </trkpt>
      <trkpt lat="38.45264" lon="14.95957">
        <ele>107.324341</ele>
        <time>2013-09-12T14:13:23Z</time>
      </trkpt>
      <trkpt lat="38.4526" lon="14.95957">
        <ele>107.805054</ele>
        <time>2013-09-12T14:13:27Z</time>
      </trkpt>
      <trkpt lat="38.45245" lon="14.95956">
        <ele>106.363037</ele>
        <time>2013-09-12T14:13:45Z</time>
      </trkpt>
      <trkpt lat="38.45235" lon="14.95953">
        <ele>106.843628</ele>
        <time>2013-09-12T14:14:22Z</time>
      </trkpt>
      <trkpt lat="38.45225" lon="14.95948">
        <ele>106.843628</ele>
        <time>2013-09-12T14:14:39Z</time>
      </trkpt>
      <trkpt lat="38.45213" lon="14.95936">
        <ele>107.324341</ele>
        <time>2013-09-12T14:15:01Z</time>
      </trkpt>
      <trkpt lat="38.45198" lon="14.95915">
        <ele>108.285645</ele>
        <time>2013-09-12T14:15:19Z</time>
      </trkpt>
      <trkpt lat="38.45197" lon="14.95887">
        <ele>109.246948</ele>
        <time>2013-09-12T14:15:36Z</time>
      </trkpt>
      <trkpt lat="38.45209" lon="14.95862">
        <ele>110.208252</ele>
        <time>2013-09-12T14:15:54Z</time>
      </trkpt>
      <trkpt lat="38.45231" lon="14.95843">
        <ele>111.650269</ele>
        <time>2013-09-12T14:16:14Z</time>
      </trkpt>
      <trkpt lat="38.4524" lon="14.95838">
        <ele>113.092285</ele>
        <time>2013-09-12T14:16:22Z</time>
      </trkpt>
      <trkpt lat="38.45266" lon="14.95829">
        <ele>114.53418</ele>
        <time>2013-09-12T14:16:41Z</time>
      </trkpt>
      <trkpt lat="38.45291" lon="14.95817">
        <ele>115.014893</ele>
        <time>2013-09-12T14:17:01Z</time>
      </trkpt>
      <trkpt lat="38.45312" lon="14.95795">
        <ele>115.976196</ele>
        <time>2013-09-12T14:17:22Z</time>
      </trkpt>
      <trkpt lat="38.45327" lon="14.9577">
        <ele>117.898804</ele>
        <time>2013-09-12T14:17:41Z</time>
      </trkpt>
      <trkpt lat="38.45345" lon="14.9575">
        <ele>120.302124</ele>
        <time>2013-09-12T14:18:00Z</time>
      </trkpt>
      <trkpt lat="38.45347" lon="14.95746">
        <ele>120.782837</ele>
        <time>2013-09-12T14:18:03Z</time>
      </trkpt>
      <trkpt lat="38.4535" lon="14.95741">
        <ele>120.782837</ele>
        <time>2013-09-12T14:18:07Z</time>
      </trkpt>
      <trkpt lat="38.45355" lon="14.95734">
        <ele>121.26355</ele>
        <time>2013-09-12T14:18:12Z</time>
      </trkpt>
      <trkpt lat="38.45359" lon="14.95727">
        <ele>121.26355</ele>
        <time>2013-09-12T14:18:17Z</time>
      </trkpt>
      <trkpt lat="38.45369" lon="14.95703">
        <ele>122.224731</ele>
        <time>2013-09-12T14:18:33Z</time>
      </trkpt>
      <trkpt lat="38.45381" lon="14.95668">
        <ele>122.705444</ele>
        <time>2013-09-12T14:18:57Z</time>
      </trkpt>
      <trkpt lat="38.45377" lon="14.95636">
        <ele>125.108765</ele>
        <time>2013-09-12T14:19:17Z</time>
      </trkpt>
      <trkpt lat="38.45357" lon="14.95612">
        <ele>126.550659</ele>
        <time>2013-09-12T14:19:37Z</time>
      </trkpt>
      <trkpt lat="38.45328" lon="14.95601">
        <ele>126.069946</ele>
        <time>2013-09-12T14:19:59Z</time>
      </trkpt>
      <trkpt lat="38.45299" lon="14.95602">
        <ele>127.031372</ele>
        <time>2013-09-12T14:20:20Z</time>
      </trkpt>
      <trkpt lat="38.45277" lon="14.95602">
        <ele>126.069946</ele>
        <time>2013-09-12T14:20:36Z</time>
      </trkpt>
      <trkpt lat="38.45247" lon="14.956">
        <ele>125.108765</ele>
        <time>2013-09-12T14:20:59Z</time>
      </trkpt>
      <trkpt lat="38.45226" lon="14.956">
        <ele>124.147339</ele>
        <time>2013-09-12T14:21:15Z</time>
      </trkpt>
      <trkpt lat="38.45193" lon="14.95605">
        <ele>122.224731</ele>
        <time>2013-09-12T14:21:39Z</time>
      </trkpt>
      <trkpt lat="38.4516" lon="14.95618">
        <ele>120.782837</ele>
        <time>2013-09-12T14:22:05Z</time>
      </trkpt>
      <trkpt lat="38.45128" lon="14.9562">
        <ele>119.821411</ele>
        <time>2013-09-12T14:22:30Z</time>
      </trkpt>
      <trkpt lat="38.45097" lon="14.95614">
        <ele>118.379395</ele>
        <time>2013-09-12T14:22:53Z</time>
      </trkpt>
      <trkpt lat="38.45071" lon="14.95606">
        <ele>116.9375</ele>
        <time>2013-09-12T14:23:13Z</time>
      </trkpt>
      <trkpt lat="38.45044" lon="14.95591">
        <ele>114.053589</ele>
        <time>2013-09-12T14:23:36Z</time>
      </trkpt>
      <trkpt lat="38.45022" lon="14.95574">
        <ele>111.169556</ele>
        <time>2013-09-12T14:23:56Z</time>
      </trkpt>
      <trkpt lat="38.45012" lon="14.95569">
        <ele>111.650269</ele>
        <time>2013-09-12T14:24:07Z</time>
      </trkpt>
      <trkpt lat="38.44986" lon="14.95556">
        <ele>112.611572</ele>
        <time>2013-09-12T14:24:30Z</time>
      </trkpt>
      <trkpt lat="38.44982" lon="14.95557">
        <ele>112.130981</ele>
        <time>2013-09-12T14:24:47Z</time>
      </trkpt>
      <trkpt lat="38.44969" lon="14.95554">
        <ele>111.169556</ele>
        <time>2013-09-12T14:25:06Z</time>
      </trkpt>
      <trkpt lat="38.44971" lon="14.95552">
        <ele>111.650269</ele>
        <time>2013-09-12T14:25:21Z</time>
      </trkpt>
      <trkpt lat="38.44975" lon="14.95553">
        <ele>112.611572</ele>
        <time>2013-09-12T14:25:25Z</time>
      </trkpt>
      <trkpt lat="38.44999" lon="14.95565">
        <ele>111.650269</ele>
        <time>2013-09-12T14:25:46Z</time>
      </trkpt>
      <trkpt lat="38.45028" lon="14.95585">
        <ele>111.650269</ele>
        <time>2013-09-12T14:26:10Z</time>
      </trkpt>
      <trkpt lat="38.4503" lon="14.95587">
        <ele>111.169556</ele>
        <time>2013-09-12T14:26:12Z</time>
      </trkpt>
      <trkpt lat="38.4503" lon="14.9559">
        <ele>111.650269</ele>
        <time>2013-09-12T14:26:14Z</time>
      </trkpt>
      <trkpt lat="38.45024" lon="14.95588">
        <ele>111.169556</ele>
        <time>2013-09-12T14:26:19Z</time>
      </trkpt>
      <trkpt lat="38.45002" lon="14.95575">
        <ele>108.285645</ele>
        <time>2013-09-12T14:26:41Z</time>
      </trkpt>
      <trkpt lat="38.44991" lon="14.95576">
        <ele>106.363037</ele>
        <time>2013-09-12T14:26:59Z</time>
      </trkpt>
      <trkpt lat="38.44981" lon="14.95581">
        <ele>102.5177</ele>
        <time>2013-09-12T14:27:12Z</time>
      </trkpt>
      <trkpt lat="38.44976" lon="14.95583">
        <ele>101.075684</ele>
        <time>2013-09-12T14:27:19Z</time>
      </trkpt>
      <trkpt lat="38.44963" lon="14.9559">
        <ele>97.711182</ele>
        <time>2013-09-12T14:27:33Z</time>
      </trkpt>
      <trkpt lat="38.44944" lon="14.95601">
        <ele>96.269287</ele>
        <time>2013-09-12T14:27:53Z</time>
      </trkpt>
      <trkpt lat="38.44924" lon="14.95614">
        <ele>95.788452</ele>
        <time>2013-09-12T14:28:12Z</time>
      </trkpt>
      <trkpt lat="38.44897" lon="14.95613">
        <ele>95.788452</ele>
        <time>2013-09-12T14:28:33Z</time>
      </trkpt>
      <trkpt lat="38.44872" lon="14.95625">
        <ele>95.788452</ele>
        <time>2013-09-12T14:28:54Z</time>
      </trkpt>
      <trkpt lat="38.44859" lon="14.95624">
        <ele>99.153076</ele>
        <time>2013-09-12T14:29:07Z</time>
      </trkpt>
      <trkpt lat="38.44843" lon="14.95615">
        <ele>98.191895</ele>
        <time>2013-09-12T14:29:26Z</time>
      </trkpt>
      <trkpt lat="38.44824" lon="14.95615">
        <ele>96.269287</ele>
        <time>2013-09-12T14:29:42Z</time>
      </trkpt>
      <trkpt lat="38.4481" lon="14.95628">
        <ele>98.191895</ele>
        <time>2013-09-12T14:29:59Z</time>
      </trkpt>
      <trkpt lat="38.44798" lon="14.95625">
        <ele>99.633789</ele>
        <time>2013-09-12T14:30:17Z</time>
      </trkpt>
      <trkpt lat="38.44788" lon="14.95628">
        <ele>102.5177</ele>
        <time>2013-09-12T14:30:27Z</time>
      </trkpt>
      <trkpt lat="38.44768" lon="14.95629">
        <ele>103.959717</ele>
        <time>2013-09-12T14:30:45Z</time>
      </trkpt>
      <trkpt lat="38.44754" lon="14.95646">
        <ele>106.363037</ele>
        <time>2013-09-12T14:31:03Z</time>
      </trkpt>
      <trkpt lat="38.44739" lon="14.95647">
        <ele>109.246948</ele>
        <time>2013-09-12T14:31:19Z</time>
      </trkpt>
      <trkpt lat="38.44731" lon="14.95643">
        <ele>112.130981</ele>
        <time>2013-09-12T14:31:29Z</time>
      </trkpt>
      <trkpt lat="38.44715" lon="14.95639">
        <ele>115.014893</ele>
        <time>2013-09-12T14:31:46Z</time>
      </trkpt>
      <trkpt lat="38.44713" lon="14.95641">
        <ele>115.976196</ele>
        <time>2013-09-12T14:31:48Z</time>
      </trkpt>
      <trkpt lat="38.44709" lon="14.95646">
        <ele>116.9375</ele>
        <time>2013-09-12T14:31:52Z</time>
      </trkpt>
      <trkpt lat="38.44694" lon="14.95663">
        <ele>118.860107</ele>
        <time>2013-09-12T14:32:10Z</time>
      </trkpt>
      <trkpt lat="38.44676" lon="14.95669">
        <ele>121.744141</ele>
        <time>2013-09-12T14:32:26Z</time>
      </trkpt>
      <trkpt lat="38.44659" lon="14.95667">
        <ele>122.705444</ele>
        <time>2013-09-12T14:32:46Z</time>
      </trkpt>
      <trkpt lat="38.44645" lon="14.9567">
        <ele>121.744141</ele>
        <time>2013-09-12T14:33:23Z</time>
      </trkpt>
      <trkpt lat="38.44621" lon="14.95678">
        <ele>122.705444</ele>
        <time>2013-09-12T14:33:43Z</time>
      </trkpt>
      <trkpt lat="38.44616" lon="14.95687">
        <ele>123.186157</ele>
        <time>2013-09-12T14:34:02Z</time>
      </trkpt>
      <trkpt lat="38.44608" lon="14.95692">
        <ele>123.666748</ele>
        <time>2013-09-12T14:34:22Z</time>
      </trkpt>
      <trkpt lat="38.44598" lon="14.95696">
        <ele>123.186157</ele>
        <time>2013-09-12T14:34:36Z</time>
      </trkpt>
      <trkpt lat="38.4458" lon="14.95703">
        <ele>121.744141</ele>
        <time>2013-09-12T14:34:54Z</time>
      </trkpt>
      <trkpt lat="38.44576" lon="14.95705">
        <ele>121.26355</ele>
        <time>2013-09-12T14:34:58Z</time>
      </trkpt>
      <trkpt lat="38.44568" lon="14.95706">
        <ele>120.782837</ele>
        <time>2013-09-12T14:35:05Z</time>
      </trkpt>
      <trkpt lat="38.44551" lon="14.95716">
        <ele>120.302124</ele>
        <time>2013-09-12T14:35:23Z</time>
      </trkpt>
      <trkpt lat="38.44548" lon="14.95724">
        <ele>119.821411</ele>
        <time>2013-09-12T14:35:37Z</time>
      </trkpt>
      <trkpt lat="38.44539" lon="14.95733">
        <ele>120.302124</ele>
        <time>2013-09-12T14:35:53Z</time>
      </trkpt>
      <trkpt lat="38.44538" lon="14.95734">
        <ele>119.821411</ele>
        <time>2013-09-12T14:36:09Z</time>
      </trkpt>
      <trkpt lat="38.44538" lon="14.95734">
        <ele>120.782837</ele>
        <time>2013-09-12T14:36:19Z</time>
      </trkpt>
      <trkpt lat="38.44538" lon="14.95734">
        <ele>120.302124</ele>
        <time>2013-09-12T14:36:42Z</time>
      </trkpt>
      <trkpt lat="38.44528" lon="14.95734">
        <ele>120.302124</ele>
        <time>2013-09-12T14:36:59Z</time>
      </trkpt>
      <trkpt lat="38.44513" lon="14.95731">
        <ele>119.34082</ele>
        <time>2013-09-12T14:37:12Z</time>
      </trkpt>
      <trkpt lat="38.44507" lon="14.95732">
        <ele>118.860107</ele>
        <time>2013-09-12T14:37:18Z</time>
      </trkpt>
      <trkpt lat="38.44485" lon="14.95722">
        <ele>119.821411</ele>
        <time>2013-09-12T14:37:38Z</time>
      </trkpt>
      <trkpt lat="38.44479" lon="14.95718">
        <ele>119.821411</ele>
        <time>2013-09-12T14:37:43Z</time>
      </trkpt>
      <trkpt lat="38.44461" lon="14.95713">
        <ele>119.34082</ele>
        <time>2013-09-12T14:37:59Z</time>
      </trkpt>
      <trkpt lat="38.44438" lon="14.95712">
        <ele>118.379395</ele>
        <time>2013-09-12T14:38:19Z</time>
      </trkpt>
      <trkpt lat="38.44421" lon="14.95709">
        <ele>117.898804</ele>
        <time>2013-09-12T14:38:34Z</time>
      </trkpt>
      <trkpt lat="38.44404" lon="14.95693">
        <ele>116.9375</ele>
        <time>2013-09-12T14:38:51Z</time>
      </trkpt>
      <trkpt lat="38.44399" lon="14.95686">
        <ele>116.9375</ele>
        <time>2013-09-12T14:39:10Z</time>
      </trkpt>
      <trkpt lat="38.44373" lon="14.95668">
        <ele>115.495605</ele>
        <time>2013-09-12T14:39:33Z</time>
      </trkpt>
      <trkpt lat="38.44347" lon="14.95652">
        <ele>114.53418</ele>
        <time>2013-09-12T14:39:56Z</time>
      </trkpt>
      <trkpt lat="38.44326" lon="14.95644">
        <ele>114.53418</ele>
        <time>2013-09-12T14:40:14Z</time>
      </trkpt>
      <trkpt lat="38.44323" lon="14.95643">
        <ele>114.053589</ele>
        <time>2013-09-12T14:40:35Z</time>
      </trkpt>
      <trkpt lat="38.44309" lon="14.9563">
        <ele>114.053589</ele>
        <time>2013-09-12T14:40:52Z</time>
      </trkpt>
      <trkpt lat="38.44288" lon="14.95611">
        <ele>111.169556</ele>
        <time>2013-09-12T14:41:15Z</time>
      </trkpt>
      <trkpt lat="38.44264" lon="14.95588">
        <ele>111.169556</ele>
        <time>2013-09-12T14:41:39Z</time>
      </trkpt>
      <trkpt lat="38.44246" lon="14.95568">
        <ele>110.688843</ele>
        <time>2013-09-12T14:42:00Z</time>
      </trkpt>
      <trkpt lat="38.44228" lon="14.95561">
        <ele>111.169556</ele>
        <time>2013-09-12T14:42:17Z</time>
      </trkpt>
      <trkpt lat="38.44215" lon="14.95554">
        <ele>114.053589</ele>
        <time>2013-09-12T14:42:31Z</time>
      </trkpt>
      <trkpt lat="38.44199" lon="14.95541">
        <ele>115.495605</ele>
        <time>2013-09-12T14:42:50Z</time>
      </trkpt>
      <trkpt lat="38.44188" lon="14.95531">
        <ele>115.495605</ele>
        <time>2013-09-12T14:43:07Z</time>
      </trkpt>
      <trkpt lat="38.44183" lon="14.95529">
        <ele>115.014893</ele>
        <time>2013-09-12T14:43:12Z</time>
      </trkpt>
      <trkpt lat="38.44154" lon="14.95517">
        <ele>115.014893</ele>
        <time>2013-09-12T14:43:37Z</time>
      </trkpt>
      <trkpt lat="38.44131" lon="14.95499">
        <ele>113.092285</ele>
        <time>2013-09-12T14:44:01Z</time>
      </trkpt>
      <trkpt lat="38.44126" lon="14.95493">
        <ele>114.53418</ele>
        <time>2013-09-12T14:44:18Z</time>
      </trkpt>
      <trkpt lat="38.44118" lon="14.95484">
        <ele>114.53418</ele>
        <time>2013-09-12T14:44:39Z</time>
      </trkpt>
      <trkpt lat="38.4411" lon="14.95475">
        <ele>115.014893</ele>
        <time>2013-09-12T14:44:57Z</time>
      </trkpt>
      <trkpt lat="38.44107" lon="14.95466">
        <ele>115.014893</ele>
        <time>2013-09-12T14:45:22Z</time>
      </trkpt>
      <trkpt lat="38.44114" lon="14.95454">
        <ele>116.9375</ele>
        <time>2013-09-12T14:45:37Z</time>
      </trkpt>
      <trkpt lat="38.44115" lon="14.95451">
        <ele>118.860107</ele>
        <time>2013-09-12T14:45:48Z</time>
      </trkpt>
      <trkpt lat="38.44116" lon="14.95453">
        <ele>118.379395</ele>
        <time>2013-09-12T14:46:25Z</time>
      </trkpt>
      <trkpt lat="38.44123" lon="14.95455">
        <ele>121.744141</ele>
        <time>2013-09-12T14:46:36Z</time>
      </trkpt>
      <trkpt lat="38.4413" lon="14.95455">
        <ele>124.147339</ele>
        <time>2013-09-12T14:46:52Z</time>
      </trkpt>
      <trkpt lat="38.44132" lon="14.95456">
        <ele>125.589355</ele>
        <time>2013-09-12T14:46:57Z</time>
      </trkpt>
      <trkpt lat="38.44132" lon="14.95455">
        <ele>128.954102</ele>
        <time>2013-09-12T14:47:27Z</time>
      </trkpt>
      <trkpt lat="38.44132" lon="14.95455">
        <ele>126.550659</ele>
        <time>2013-09-12T14:47:28Z</time>
      </trkpt>
      <trkpt lat="38.44134" lon="14.95456">
        <ele>124.628052</ele>
        <time>2013-09-12T14:47:32Z</time>
      </trkpt>
      <trkpt lat="38.44146" lon="14.95463">
        <ele>127.511963</ele>
        <time>2013-09-12T14:47:46Z</time>
      </trkpt>
      <trkpt lat="38.44158" lon="14.95463">
        <ele>126.550659</ele>
        <time>2013-09-12T14:48:02Z</time>
      </trkpt>
      <trkpt lat="38.44169" lon="14.95464">
        <ele>129.434692</ele>
        <time>2013-09-12T14:48:16Z</time>
      </trkpt>
      <trkpt lat="38.44177" lon="14.95464">
        <ele>132.318604</ele>
        <time>2013-09-12T14:48:27Z</time>
      </trkpt>
      <trkpt lat="38.44188" lon="14.95463">
        <ele>134.241211</ele>
        <time>2013-09-12T14:48:42Z</time>
      </trkpt>
      <trkpt lat="38.44198" lon="14.95464">
        <ele>136.644653</ele>
        <time>2013-09-12T14:48:58Z</time>
      </trkpt>
      <trkpt lat="38.44201" lon="14.95463">
        <ele>137.125244</ele>
        <time>2013-09-12T14:49:16Z</time>
      </trkpt>
      <trkpt lat="38.44208" lon="14.95466">
        <ele>138.567261</ele>
        <time>2013-09-12T14:49:35Z</time>
      </trkpt>
      <trkpt lat="38.44214" lon="14.95467">
        <ele>140.489868</ele>
        <time>2013-09-12T14:49:45Z</time>
      </trkpt>
      <trkpt lat="38.44225" lon="14.95464">
        <ele>141.931763</ele>
        <time>2013-09-12T14:50:01Z</time>
      </trkpt>
      <trkpt lat="38.4423" lon="14.95463">
        <ele>144.335205</ele>
        <time>2013-09-12T14:50:09Z</time>
      </trkpt>
      <trkpt lat="38.44235" lon="14.95462">
        <ele>144.815796</ele>
        <time>2013-09-12T14:50:16Z</time>
      </trkpt>
      <trkpt lat="38.44247" lon="14.9546">
        <ele>147.699707</ele>
        <time>2013-09-12T14:50:34Z</time>
      </trkpt>
      <trkpt lat="38.44258" lon="14.95459">
        <ele>151.064209</ele>
        <time>2013-09-12T14:50:51Z</time>
      </trkpt>
      <trkpt lat="38.44265" lon="14.95457">
        <ele>154.428955</ele>
        <time>2013-09-12T14:51:04Z</time>
      </trkpt>
      <trkpt lat="38.44273" lon="14.95459">
        <ele>156.832153</ele>
        <time>2013-09-12T14:51:20Z</time>
      </trkpt>
      <trkpt lat="38.44274" lon="14.95458">
        <ele>157.793579</ele>
        <time>2013-09-12T14:51:38Z</time>
      </trkpt>
      <trkpt lat="38.44278" lon="14.95455">
        <ele>157.312866</ele>
        <time>2013-09-12T14:52:13Z</time>
      </trkpt>
      <trkpt lat="38.44285" lon="14.95454">
        <ele>160.67749</ele>
        <time>2013-09-12T14:52:23Z</time>
      </trkpt>
      <trkpt lat="38.44285" lon="14.95454">
        <ele>160.196899</ele>
        <time>2013-09-12T14:52:24Z</time>
      </trkpt>
      <trkpt lat="38.44294" lon="14.95453">
        <ele>163.561523</ele>
        <time>2013-09-12T14:52:39Z</time>
      </trkpt>
      <trkpt lat="38.44299" lon="14.95452">
        <ele>165.964722</ele>
        <time>2013-09-12T14:52:53Z</time>
      </trkpt>
      <trkpt lat="38.44308" lon="14.95447">
        <ele>167.887329</ele>
        <time>2013-09-12T14:53:08Z</time>
      </trkpt>
      <trkpt lat="38.44314" lon="14.95444">
        <ele>171.252075</ele>
        <time>2013-09-12T14:53:18Z</time>
      </trkpt>
      <trkpt lat="38.44321" lon="14.95445">
        <ele>174.616577</ele>
        <time>2013-09-12T14:53:29Z</time>
      </trkpt>
      <trkpt lat="38.44324" lon="14.95447">
        <ele>176.058594</ele>
        <time>2013-09-12T14:53:36Z</time>
      </trkpt>
      <trkpt lat="38.44332" lon="14.95451">
        <ele>177.50061</ele>
        <time>2013-09-12T14:53:52Z</time>
      </trkpt>
      <trkpt lat="38.44336" lon="14.95455">
        <ele>179.423218</ele>
        <time>2013-09-12T14:54:12Z</time>
      </trkpt>
      <trkpt lat="38.44342" lon="14.95461">
        <ele>179.903809</ele>
        <time>2013-09-12T14:54:27Z</time>
      </trkpt>
      <trkpt lat="38.44353" lon="14.95465">
        <ele>182.787842</ele>
        <time>2013-09-12T14:54:45Z</time>
      </trkpt>
      <trkpt lat="38.44361" lon="14.95468">
        <ele>185.191162</ele>
        <time>2013-09-12T14:54:56Z</time>
      </trkpt>
      <trkpt lat="38.44365" lon="14.95472">
        <ele>187.11377</ele>
        <time>2013-09-12T14:55:02Z</time>
      </trkpt>
      <trkpt lat="38.44375" lon="14.9548">
        <ele>188.075073</ele>
        <time>2013-09-12T14:55:17Z</time>
      </trkpt>
      <trkpt lat="38.44386" lon="14.95486">
        <ele>189.036377</ele>
        <time>2013-09-12T14:55:35Z</time>
      </trkpt>
      <trkpt lat="38.4439" lon="14.95488">
        <ele>190.958984</ele>
        <time>2013-09-12T14:55:51Z</time>
      </trkpt>
      <trkpt lat="38.44389" lon="14.95488">
        <ele>190.958984</ele>
        <time>2013-09-12T14:55:55Z</time>
      </trkpt>
      <trkpt lat="38.44388" lon="14.95482">
        <ele>189.036377</ele>
        <time>2013-09-12T14:56:03Z</time>
      </trkpt>
      <trkpt lat="38.444" lon="14.95476">
        <ele>189.036377</ele>
        <time>2013-09-12T14:56:20Z</time>
      </trkpt>
      <trkpt lat="38.44396" lon="14.95477">
        <ele>189.516968</ele>
        <time>2013-09-12T14:56:38Z</time>
      </trkpt>
      <trkpt lat="38.444" lon="14.95475">
        <ele>188.555786</ele>
        <time>2013-09-12T14:56:51Z</time>
      </trkpt>
      <trkpt lat="38.44419" lon="14.95467">
        <ele>190.958984</ele>
        <time>2013-09-12T14:57:10Z</time>
      </trkpt>
      <trkpt lat="38.44427" lon="14.95462">
        <ele>189.997681</ele>
        <time>2013-09-12T14:57:19Z</time>
      </trkpt>
      <trkpt lat="38.44439" lon="14.95443">
        <ele>188.555786</ele>
        <time>2013-09-12T14:57:38Z</time>
      </trkpt>
      <trkpt lat="38.44442" lon="14.95436">
        <ele>188.555786</ele>
        <time>2013-09-12T14:57:45Z</time>
      </trkpt>
      <trkpt lat="38.44447" lon="14.95425">
        <ele>189.036377</ele>
        <time>2013-09-12T14:57:54Z</time>
      </trkpt>
      <trkpt lat="38.44458" lon="14.95415">
        <ele>192.401123</ele>
        <time>2013-09-12T14:58:07Z</time>
      </trkpt>
      <trkpt lat="38.44473" lon="14.95413">
        <ele>193.362305</ele>
        <time>2013-09-12T14:58:23Z</time>
      </trkpt>
      <trkpt lat="38.44492" lon="14.95414">
        <ele>192.401123</ele>
        <time>2013-09-12T14:58:38Z</time>
      </trkpt>
      <trkpt lat="38.44498" lon="14.95414">
        <ele>192.881714</ele>
        <time>2013-09-12T14:58:43Z</time>
      </trkpt>
      <trkpt lat="38.44503" lon="14.95415">
        <ele>191.920288</ele>
        <time>2013-09-12T14:58:49Z</time>
      </trkpt>
      <trkpt lat="38.44509" lon="14.95421">
        <ele>192.881714</ele>
        <time>2013-09-12T14:58:55Z</time>
      </trkpt>
      <trkpt lat="38.4451" lon="14.95428">
        <ele>192.881714</ele>
        <time>2013-09-12T14:59:01Z</time>
      </trkpt>
      <trkpt lat="38.44524" lon="14.95448">
        <ele>197.20752</ele>
        <time>2013-09-12T14:59:17Z</time>
      </trkpt>
      <trkpt lat="38.44544" lon="14.95457">
        <ele>197.688232</ele>
        <time>2013-09-12T14:59:34Z</time>
      </trkpt>
      <trkpt lat="38.44571" lon="14.95448">
        <ele>196.726929</ele>
        <time>2013-09-12T14:59:57Z</time>
      </trkpt>
      <trkpt lat="38.44597" lon="14.95433">
        <ele>196.246338</ele>
        <time>2013-09-12T15:00:19Z</time>
      </trkpt>
      <trkpt lat="38.44633" lon="14.95424">
        <ele>199.130127</ele>
        <time>2013-09-12T15:00:45Z</time>
      </trkpt>
      <trkpt lat="38.44665" lon="14.95425">
        <ele>199.61084</ele>
        <time>2013-09-12T15:01:09Z</time>
      </trkpt>
      <trkpt lat="38.4468" lon="14.95422">
        <ele>198.168945</ele>
        <time>2013-09-12T15:01:27Z</time>
      </trkpt>
      <trkpt lat="38.44681" lon="14.95405">
        <ele>195.284912</ele>
        <time>2013-09-12T15:01:43Z</time>
      </trkpt>
      <trkpt lat="38.44682" lon="14.95402">
        <ele>194.32373</ele>
        <time>2013-09-12T15:01:46Z</time>
      </trkpt>
      <trkpt lat="38.44684" lon="14.95387">
        <ele>193.362305</ele>
        <time>2013-09-12T15:02:02Z</time>
      </trkpt>
      <trkpt lat="38.44684" lon="14.95384">
        <ele>191.920288</ele>
        <time>2013-09-12T15:02:20Z</time>
      </trkpt>
      <trkpt lat="38.44684" lon="14.95381">
        <ele>194.32373</ele>
        <time>2013-09-12T15:02:52Z</time>
      </trkpt>
      <trkpt lat="38.44683" lon="14.95376">
        <ele>194.32373</ele>
        <time>2013-09-12T15:02:56Z</time>
      </trkpt>
      <trkpt lat="38.44683" lon="14.95348">
        <ele>193.843018</ele>
        <time>2013-09-12T15:03:16Z</time>
      </trkpt>
      <trkpt lat="38.44678" lon="14.95319">
        <ele>195.284912</ele>
        <time>2013-09-12T15:03:37Z</time>
      </trkpt>
      <trkpt lat="38.4467" lon="14.95301">
        <ele>198.168945</ele>
        <time>2013-09-12T15:03:52Z</time>
      </trkpt>
      <trkpt lat="38.44664" lon="14.95282">
        <ele>202.014282</ele>
        <time>2013-09-12T15:04:09Z</time>
      </trkpt>
      <trkpt lat="38.44664" lon="14.95261">
        <ele>203.93689</ele>
        <time>2013-09-12T15:04:26Z</time>
      </trkpt>
      <trkpt lat="38.44662" lon="14.9525">
        <ele>205.859497</ele>
        <time>2013-09-12T15:04:34Z</time>
      </trkpt>
      <trkpt lat="38.4466" lon="14.95231">
        <ele>208.743408</ele>
        <time>2013-09-12T15:04:48Z</time>
      </trkpt>
      <trkpt lat="38.4466" lon="14.95228">
        <ele>209.704834</ele>
        <time>2013-09-12T15:04:50Z</time>
      </trkpt>
      <trkpt lat="38.44659" lon="14.95213">
        <ele>212.588623</ele>
        <time>2013-09-12T15:05:03Z</time>
      </trkpt>
      <trkpt lat="38.44659" lon="14.95207">
        <ele>213.550049</ele>
        <time>2013-09-12T15:05:07Z</time>
      </trkpt>
      <trkpt lat="38.4466" lon="14.95203">
        <ele>214.03064</ele>
        <time>2013-09-12T15:05:10Z</time>
      </trkpt>
      <trkpt lat="38.44664" lon="14.95195">
        <ele>214.991943</ele>
        <time>2013-09-12T15:05:17Z</time>
      </trkpt>
      <trkpt lat="38.44669" lon="14.95189">
        <ele>215.472656</ele>
        <time>2013-09-12T15:05:33Z</time>
      </trkpt>
      <trkpt lat="38.44681" lon="14.95174">
        <ele>218.83728</ele>
        <time>2013-09-12T15:05:49Z</time>
      </trkpt>
      <trkpt lat="38.44682" lon="14.95173">
        <ele>218.356567</ele>
        <time>2013-09-12T15:05:50Z</time>
      </trkpt>
      <trkpt lat="38.44683" lon="14.95171">
        <ele>218.83728</ele>
        <time>2013-09-12T15:05:52Z</time>
      </trkpt>
      <trkpt lat="38.44686" lon="14.95165">
        <ele>219.317993</ele>
        <time>2013-09-12T15:05:57Z</time>
      </trkpt>
      <trkpt lat="38.44697" lon="14.95138">
        <ele>219.317993</ele>
        <time>2013-09-12T15:06:16Z</time>
      </trkpt>
      <trkpt lat="38.4471" lon="14.95108">
        <ele>219.317993</ele>
        <time>2013-09-12T15:06:38Z</time>
      </trkpt>
      <trkpt lat="38.44711" lon="14.95107">
        <ele>219.317993</ele>
        <time>2013-09-12T15:06:39Z</time>
      </trkpt>
      <trkpt lat="38.44726" lon="14.95095">
        <ele>215.472656</ele>
        <time>2013-09-12T15:06:55Z</time>
      </trkpt>
      <trkpt lat="38.44742" lon="14.95092">
        <ele>212.108032</ele>
        <time>2013-09-12T15:07:12Z</time>
      </trkpt>
      <trkpt lat="38.44754" lon="14.95092">
        <ele>210.666016</ele>
        <time>2013-09-12T15:07:27Z</time>
      </trkpt>
      <trkpt lat="38.44766" lon="14.95091">
        <ele>207.301392</ele>
        <time>2013-09-12T15:07:40Z</time>
      </trkpt>
      <trkpt lat="38.44779" lon="14.95093">
        <ele>205.378784</ele>
        <time>2013-09-12T15:08:00Z</time>
      </trkpt>
      <trkpt lat="38.44788" lon="14.95098">
        <ele>202.975464</ele>
        <time>2013-09-12T15:08:11Z</time>
      </trkpt>
      <trkpt lat="38.44791" lon="14.951">
        <ele>201.533569</ele>
        <time>2013-09-12T15:08:17Z</time>
      </trkpt>
      <trkpt lat="38.448" lon="14.95109">
        <ele>198.168945</ele>
        <time>2013-09-12T15:08:29Z</time>
      </trkpt>
      <trkpt lat="38.44813" lon="14.9512">
        <ele>196.246338</ele>
        <time>2013-09-12T15:08:49Z</time>
      </trkpt>
      <trkpt lat="38.44823" lon="14.95122">
        <ele>193.362305</ele>
        <time>2013-09-12T15:09:00Z</time>
      </trkpt>
      <trkpt lat="38.44833" lon="14.95124">
        <ele>189.997681</ele>
        <time>2013-09-12T15:09:11Z</time>
      </trkpt>
      <trkpt lat="38.44847" lon="14.95128">
        <ele>186.633179</ele>
        <time>2013-09-12T15:09:26Z</time>
      </trkpt>
      <trkpt lat="38.44861" lon="14.95135">
        <ele>183.749023</ele>
        <time>2013-09-12T15:09:41Z</time>
      </trkpt>
      <trkpt lat="38.44871" lon="14.95149">
        <ele>180.865234</ele>
        <time>2013-09-12T15:09:56Z</time>
      </trkpt>
      <trkpt lat="38.44877" lon="14.95166">
        <ele>177.981201</ele>
        <time>2013-09-12T15:10:10Z</time>
      </trkpt>
      <trkpt lat="38.4488" lon="14.95185">
        <ele>175.09729</ele>
        <time>2013-09-12T15:10:25Z</time>
      </trkpt>
      <trkpt lat="38.4488" lon="14.95189">
        <ele>175.577881</ele>
        <time>2013-09-12T15:10:40Z</time>
      </trkpt>
      <trkpt lat="38.4488" lon="14.9519">
        <ele>174.616577</ele>
        <time>2013-09-12T15:10:42Z</time>
      </trkpt>
      <trkpt lat="38.44881" lon="14.95208">
        <ele>171.252075</ele>
        <time>2013-09-12T15:10:57Z</time>
      </trkpt>
      <trkpt lat="38.44882" lon="14.95214">
        <ele>170.290649</ele>
        <time>2013-09-12T15:11:02Z</time>
      </trkpt>
      <trkpt lat="38.44885" lon="14.95232">
        <ele>166.926025</ele>
        <time>2013-09-12T15:11:16Z</time>
      </trkpt>
      <trkpt lat="38.44887" lon="14.95248">
        <ele>165.003418</ele>
        <time>2013-09-12T15:11:31Z</time>
      </trkpt>
      <trkpt lat="38.4489" lon="14.95266">
        <ele>162.119507</ele>
        <time>2013-09-12T15:11:46Z</time>
      </trkpt>
      <trkpt lat="38.44892" lon="14.95271">
        <ele>160.196899</ele>
        <time>2013-09-12T15:11:49Z</time>
      </trkpt>
      <trkpt lat="38.44901" lon="14.95291">
        <ele>158.27417</ele>
        <time>2013-09-12T15:12:08Z</time>
      </trkpt>
      <trkpt lat="38.44909" lon="14.95305">
        <ele>155.390259</ele>
        <time>2013-09-12T15:12:22Z</time>
      </trkpt>
      <trkpt lat="38.4491" lon="14.95306">
        <ele>154.909546</ele>
        <time>2013-09-12T15:12:24Z</time>
      </trkpt>
      <trkpt lat="38.4492" lon="14.95312">
        <ele>152.025757</ele>
        <time>2013-09-12T15:12:34Z</time>
      </trkpt>
      <trkpt lat="38.44938" lon="14.95319">
        <ele>149.141602</ele>
        <time>2013-09-12T15:12:52Z</time>
      </trkpt>
      <trkpt lat="38.44953" lon="14.95324">
        <ele>145.296387</ele>
        <time>2013-09-12T15:13:06Z</time>
      </trkpt>
      <trkpt lat="38.44975" lon="14.9533">
        <ele>141.931763</ele>
        <time>2013-09-12T15:13:27Z</time>
      </trkpt>
      <trkpt lat="38.4498" lon="14.95333">
        <ele>140.489868</ele>
        <time>2013-09-12T15:13:32Z</time>
      </trkpt>
      <trkpt lat="38.44986" lon="14.95344">
        <ele>138.567261</ele>
        <time>2013-09-12T15:13:42Z</time>
      </trkpt>
      <trkpt lat="38.44987" lon="14.95353">
        <ele>137.125244</ele>
        <time>2013-09-12T15:13:48Z</time>
      </trkpt>
      <trkpt lat="38.44991" lon="14.95386">
        <ele>133.760498</ele>
        <time>2013-09-12T15:14:10Z</time>
      </trkpt>
      <trkpt lat="38.44995" lon="14.95419">
        <ele>131.837891</ele>
        <time>2013-09-12T15:14:33Z</time>
      </trkpt>
      <trkpt lat="38.44993" lon="14.95442">
        <ele>128.473389</ele>
        <time>2013-09-12T15:14:50Z</time>
      </trkpt>
      <trkpt lat="38.44989" lon="14.95462">
        <ele>125.108765</ele>
        <time>2013-09-12T15:15:06Z</time>
      </trkpt>
      <trkpt lat="38.44987" lon="14.95483">
        <ele>122.224731</ele>
        <time>2013-09-12T15:15:22Z</time>
      </trkpt>
      <trkpt lat="38.44987" lon="14.955">
        <ele>118.860107</ele>
        <time>2013-09-12T15:15:35Z</time>
      </trkpt>
      <trkpt lat="38.44987" lon="14.95501">
        <ele>118.379395</ele>
        <time>2013-09-12T15:15:36Z</time>
      </trkpt>
      <trkpt lat="38.44987" lon="14.95528">
        <ele>115.495605</ele>
        <time>2013-09-12T15:15:56Z</time>
      </trkpt>
      <trkpt lat="38.44994" lon="14.9556">
        <ele>114.053589</ele>
        <time>2013-09-12T15:16:20Z</time>
      </trkpt>
      <trkpt lat="38.45015" lon="14.95576">
        <ele>113.572998</ele>
        <time>2013-09-12T15:16:41Z</time>
      </trkpt>
      <trkpt lat="38.45033" lon="14.9559">
        <ele>114.53418</ele>
        <time>2013-09-12T15:17:01Z</time>
      </trkpt>
      <trkpt lat="38.45029" lon="14.95589">
        <ele>114.53418</ele>
        <time>2013-09-12T15:17:05Z</time>
      </trkpt>
      <trkpt lat="38.45007" lon="14.95577">
        <ele>112.130981</ele>
        <time>2013-09-12T15:17:28Z</time>
      </trkpt>
      <trkpt lat="38.44992" lon="14.95576">
        <ele>108.766235</ele>
        <time>2013-09-12T15:17:45Z</time>
      </trkpt>
      <trkpt lat="38.44983" lon="14.9558">
        <ele>104.921021</ele>
        <time>2013-09-12T15:17:56Z</time>
      </trkpt>
      <trkpt lat="38.44981" lon="14.95585">
        <ele>104.921021</ele>
        <time>2013-09-12T15:18:01Z</time>
      </trkpt>
      <trkpt lat="38.44982" lon="14.95591">
        <ele>104.921021</ele>
        <time>2013-09-12T15:18:05Z</time>
      </trkpt>
      <trkpt lat="38.44981" lon="14.95609">
        <ele>104.921021</ele>
        <time>2013-09-12T15:18:18Z</time>
      </trkpt>
      <trkpt lat="38.4498" lon="14.95621">
        <ele>107.805054</ele>
        <time>2013-09-12T15:18:29Z</time>
      </trkpt>
      <trkpt lat="38.4497" lon="14.95642">
        <ele>110.688843</ele>
        <time>2013-09-12T15:18:49Z</time>
      </trkpt>
      <trkpt lat="38.44959" lon="14.95646">
        <ele>107.324341</ele>
        <time>2013-09-12T15:19:02Z</time>
      </trkpt>
      <trkpt lat="38.44943" lon="14.95656">
        <ele>104.921021</ele>
        <time>2013-09-12T15:19:21Z</time>
      </trkpt>
      <trkpt lat="38.4494" lon="14.95657">
        <ele>104.921021</ele>
        <time>2013-09-12T15:19:24Z</time>
      </trkpt>
      <trkpt lat="38.44936" lon="14.95659">
        <ele>105.401733</ele>
        <time>2013-09-12T15:19:29Z</time>
      </trkpt>
      <trkpt lat="38.44922" lon="14.95668">
        <ele>108.285645</ele>
        <time>2013-09-12T15:19:46Z</time>
      </trkpt>
      <trkpt lat="38.4491" lon="14.95684">
        <ele>109.246948</ele>
        <time>2013-09-12T15:20:04Z</time>
      </trkpt>
      <trkpt lat="38.44899" lon="14.95703">
        <ele>107.805054</ele>
        <time>2013-09-12T15:20:22Z</time>
      </trkpt>
      <trkpt lat="38.44894" lon="14.95709">
        <ele>106.363037</ele>
        <time>2013-09-12T15:20:42Z</time>
      </trkpt>
      <trkpt lat="38.44891" lon="14.95713">
        <ele>104.44043</ele>
        <time>2013-09-12T15:20:48Z</time>
      </trkpt>
      <trkpt lat="38.44881" lon="14.95726">
        <ele>102.5177</ele>
        <time>2013-09-12T15:21:08Z</time>
      </trkpt>
      <trkpt lat="38.44879" lon="14.95727">
        <ele>101.556396</ele>
        <time>2013-09-12T15:21:10Z</time>
      </trkpt>
      <trkpt lat="38.44873" lon="14.95733">
        <ele>98.191895</ele>
        <time>2013-09-12T15:21:22Z</time>
      </trkpt>
      <trkpt lat="38.44865" lon="14.95739">
        <ele>95.307739</ele>
        <time>2013-09-12T15:21:38Z</time>
      </trkpt>
      <trkpt lat="38.44859" lon="14.95743">
        <ele>91.943237</ele>
        <time>2013-09-12T15:21:50Z</time>
      </trkpt>
      <trkpt lat="38.44849" lon="14.95749">
        <ele>89.059326</ele>
        <time>2013-09-12T15:22:09Z</time>
      </trkpt>
      <trkpt lat="38.4484" lon="14.9576">
        <ele>87.617188</ele>
        <time>2013-09-12T15:22:27Z</time>
      </trkpt>
      <trkpt lat="38.44836" lon="14.95771">
        <ele>84.252686</ele>
        <time>2013-09-12T15:22:41Z</time>
      </trkpt>
      <trkpt lat="38.44829" lon="14.95776">
        <ele>81.368774</ele>
        <time>2013-09-12T15:22:57Z</time>
      </trkpt>
      <trkpt lat="38.44828" lon="14.95787">
        <ele>78.004028</ele>
        <time>2013-09-12T15:23:14Z</time>
      </trkpt>
      <trkpt lat="38.44824" lon="14.95795">
        <ele>74.639526</ele>
        <time>2013-09-12T15:23:30Z</time>
      </trkpt>
      <trkpt lat="38.44821" lon="14.95802">
        <ele>72.716919</ele>
        <time>2013-09-12T15:23:49Z</time>
      </trkpt>
      <trkpt lat="38.44825" lon="14.95798">
        <ele>74.158813</ele>
        <time>2013-09-12T15:24:07Z</time>
      </trkpt>
      <trkpt lat="38.44827" lon="14.95792">
        <ele>76.562134</ele>
        <time>2013-09-12T15:24:14Z</time>
      </trkpt>
      <trkpt lat="38.44827" lon="14.95781">
        <ele>79.446045</ele>
        <time>2013-09-12T15:24:28Z</time>
      </trkpt>
      <trkpt lat="38.44827" lon="14.95778">
        <ele>81.849365</ele>
        <time>2013-09-12T15:24:32Z</time>
      </trkpt>
      <trkpt lat="38.44834" lon="14.95773">
        <ele>84.733398</ele>
        <time>2013-09-12T15:24:43Z</time>
      </trkpt>
      <trkpt lat="38.44836" lon="14.95771">
        <ele>85.213989</ele>
        <time>2013-09-12T15:24:45Z</time>
      </trkpt>
      <trkpt lat="38.44845" lon="14.95755">
        <ele>87.617188</ele>
        <time>2013-09-12T15:25:03Z</time>
      </trkpt>
      <trkpt lat="38.4485" lon="14.95752">
        <ele>89.539917</ele>
        <time>2013-09-12T15:25:11Z</time>
      </trkpt>
      <trkpt lat="38.44857" lon="14.95745">
        <ele>91.462524</ele>
        <time>2013-09-12T15:25:26Z</time>
      </trkpt>
      <trkpt lat="38.44864" lon="14.95739">
        <ele>95.307739</ele>
        <time>2013-09-12T15:25:38Z</time>
      </trkpt>
      <trkpt lat="38.44869" lon="14.95735">
        <ele>97.230469</ele>
        <time>2013-09-12T15:25:47Z</time>
      </trkpt>
      <trkpt lat="38.44875" lon="14.95731">
        <ele>100.114502</ele>
        <time>2013-09-12T15:25:55Z</time>
      </trkpt>
      <trkpt lat="38.44876" lon="14.95731">
        <ele>100.114502</ele>
        <time>2013-09-12T15:25:56Z</time>
      </trkpt>
      <trkpt lat="38.44886" lon="14.95719">
        <ele>103.479004</ele>
        <time>2013-09-12T15:26:12Z</time>
      </trkpt>
      <trkpt lat="38.44891" lon="14.9571">
        <ele>107.324341</ele>
        <time>2013-09-12T15:26:23Z</time>
      </trkpt>
      <trkpt lat="38.44895" lon="14.95706">
        <ele>107.805054</ele>
        <time>2013-09-12T15:26:29Z</time>
      </trkpt>
      <trkpt lat="38.44907" lon="14.95687">
        <ele>109.727661</ele>
        <time>2013-09-12T15:26:48Z</time>
      </trkpt>
      <trkpt lat="38.4492" lon="14.95669">
        <ele>109.246948</ele>
        <time>2013-09-12T15:27:08Z</time>
      </trkpt>
      <trkpt lat="38.44932" lon="14.9566">
        <ele>106.363037</ele>
        <time>2013-09-12T15:27:24Z</time>
      </trkpt>
      <trkpt lat="38.44954" lon="14.95649">
        <ele>106.843628</ele>
        <time>2013-09-12T15:27:45Z</time>
      </trkpt>
      <trkpt lat="38.44968" lon="14.95642">
        <ele>109.246948</ele>
        <time>2013-09-12T15:28:00Z</time>
      </trkpt>
      <trkpt lat="38.44978" lon="14.95627">
        <ele>108.766235</ele>
        <time>2013-09-12T15:28:17Z</time>
      </trkpt>
      <trkpt lat="38.44979" lon="14.95625">
        <ele>107.805054</ele>
        <time>2013-09-12T15:28:19Z</time>
      </trkpt>
      <trkpt lat="38.44979" lon="14.95599">
        <ele>104.921021</ele>
        <time>2013-09-12T15:28:41Z</time>
      </trkpt>
      <trkpt lat="38.44977" lon="14.9558">
        <ele>104.921021</ele>
        <time>2013-09-12T15:29:00Z</time>
      </trkpt>
      <trkpt lat="38.44974" lon="14.95582">
        <ele>103.479004</ele>
        <time>2013-09-12T15:29:13Z</time>
      </trkpt>
      <trkpt lat="38.44988" lon="14.95578">
        <ele>106.843628</ele>
        <time>2013-09-12T15:29:21Z</time>
      </trkpt>
      <trkpt lat="38.44999" lon="14.95579">
        <ele>108.285645</ele>
        <time>2013-09-12T15:29:27Z</time>
      </trkpt>
      <trkpt lat="38.45005" lon="14.9558">
        <ele>110.208252</ele>
        <time>2013-09-12T15:29:32Z</time>
      </trkpt>
      <trkpt lat="38.45011" lon="14.95583">
        <ele>111.169556</ele>
        <time>2013-09-12T15:29:37Z</time>
      </trkpt>
      <trkpt lat="38.45032" lon="14.95592">
        <ele>115.014893</ele>
        <time>2013-09-12T15:29:55Z</time>
      </trkpt>
      <trkpt lat="38.45038" lon="14.95594">
        <ele>115.495605</ele>
        <time>2013-09-12T15:30:05Z</time>
      </trkpt>
      <trkpt lat="38.45057" lon="14.95604">
        <ele>116.456787</ele>
        <time>2013-09-12T15:30:24Z</time>
      </trkpt>
      <trkpt lat="38.45077" lon="14.95615">
        <ele>117.898804</ele>
        <time>2013-09-12T15:30:44Z</time>
      </trkpt>
      <trkpt lat="38.45097" lon="14.9562">
        <ele>119.34082</ele>
        <time>2013-09-12T15:31:01Z</time>
      </trkpt>
      <trkpt lat="38.45122" lon="14.95625">
        <ele>120.302124</ele>
        <time>2013-09-12T15:31:24Z</time>
      </trkpt>
      <trkpt lat="38.4515" lon="14.95626">
        <ele>121.26355</ele>
        <time>2013-09-12T15:31:48Z</time>
      </trkpt>
      <trkpt lat="38.4517" lon="14.95618">
        <ele>123.186157</ele>
        <time>2013-09-12T15:32:07Z</time>
      </trkpt>
      <trkpt lat="38.4519" lon="14.95612">
        <ele>122.705444</ele>
        <time>2013-09-12T15:32:25Z</time>
      </trkpt>
      <trkpt lat="38.45209" lon="14.95607">
        <ele>125.108765</ele>
        <time>2013-09-12T15:32:41Z</time>
      </trkpt>
      <trkpt lat="38.45235" lon="14.95608">
        <ele>125.589355</ele>
        <time>2013-09-12T15:33:02Z</time>
      </trkpt>
      <trkpt lat="38.45242" lon="14.95609">
        <ele>125.589355</ele>
        <time>2013-09-12T15:33:07Z</time>
      </trkpt>
      <trkpt lat="38.4527" lon="14.95608">
        <ele>125.108765</ele>
        <time>2013-09-12T15:33:29Z</time>
      </trkpt>
      <trkpt lat="38.45304" lon="14.95607">
        <ele>126.069946</ele>
        <time>2013-09-12T15:33:56Z</time>
      </trkpt>
      <trkpt lat="38.45331" lon="14.95608">
        <ele>126.550659</ele>
        <time>2013-09-12T15:34:20Z</time>
      </trkpt>
      <trkpt lat="38.45344" lon="14.95609">
        <ele>127.031372</ele>
        <time>2013-09-12T15:34:35Z</time>
      </trkpt>
      <trkpt lat="38.4535" lon="14.9561">
        <ele>126.550659</ele>
        <time>2013-09-12T15:34:40Z</time>
      </trkpt>
      <trkpt lat="38.45374" lon="14.95627">
        <ele>126.069946</ele>
        <time>2013-09-12T15:35:02Z</time>
      </trkpt>
      <trkpt lat="38.45382" lon="14.95653">
        <ele>125.589355</ele>
        <time>2013-09-12T15:35:21Z</time>
      </trkpt>
      <trkpt lat="38.45381" lon="14.95659">
        <ele>124.628052</ele>
        <time>2013-09-12T15:35:35Z</time>
      </trkpt>
      <trkpt lat="38.45382" lon="14.95666">
        <ele>125.108765</ele>
        <time>2013-09-12T15:35:48Z</time>
      </trkpt>
      <trkpt lat="38.45382" lon="14.95667">
        <ele>125.108765</ele>
        <time>2013-09-12T15:35:49Z</time>
      </trkpt>
      <trkpt lat="38.4537" lon="14.95701">
        <ele>124.147339</ele>
        <time>2013-09-12T15:36:14Z</time>
      </trkpt>
      <trkpt lat="38.45363" lon="14.95719">
        <ele>122.224731</ele>
        <time>2013-09-12T15:36:26Z</time>
      </trkpt>
      <trkpt lat="38.45348" lon="14.95748">
        <ele>121.26355</ele>
        <time>2013-09-12T15:36:48Z</time>
      </trkpt>
      <trkpt lat="38.45335" lon="14.95768">
        <ele>118.860107</ele>
        <time>2013-09-12T15:37:06Z</time>
      </trkpt>
      <trkpt lat="38.4532" lon="14.95791">
        <ele>117.418213</ele>
        <time>2013-09-12T15:37:26Z</time>
      </trkpt>
      <trkpt lat="38.45299" lon="14.95817">
        <ele>115.976196</ele>
        <time>2013-09-12T15:37:50Z</time>
      </trkpt>
      <trkpt lat="38.45277" lon="14.95828">
        <ele>114.53418</ele>
        <time>2013-09-12T15:38:11Z</time>
      </trkpt>
      <trkpt lat="38.45263" lon="14.95833">
        <ele>113.572998</ele>
        <time>2013-09-12T15:38:22Z</time>
      </trkpt>
      <trkpt lat="38.45254" lon="14.95839">
        <ele>113.092285</ele>
        <time>2013-09-12T15:38:39Z</time>
      </trkpt>
      <trkpt lat="38.45251" lon="14.9584">
        <ele>113.572998</ele>
        <time>2013-09-12T15:39:00Z</time>
      </trkpt>
      <trkpt lat="38.45227" lon="14.9585">
        <ele>111.650269</ele>
        <time>2013-09-12T15:39:20Z</time>
      </trkpt>
      <trkpt lat="38.45208" lon="14.95871">
        <ele>110.208252</ele>
        <time>2013-09-12T15:39:41Z</time>
      </trkpt>
      <trkpt lat="38.45197" lon="14.95897">
        <ele>108.285645</ele>
        <time>2013-09-12T15:40:00Z</time>
      </trkpt>
      <trkpt lat="38.45198" lon="14.95906">
        <ele>109.727661</ele>
        <time>2013-09-12T15:40:06Z</time>
      </trkpt>
      <trkpt lat="38.45198" lon="14.9592">
        <ele>107.805054</ele>
        <time>2013-09-12T15:40:21Z</time>
      </trkpt>
      <trkpt lat="38.452" lon="14.95919">
        <ele>108.285645</ele>
        <time>2013-09-12T15:40:37Z</time>
      </trkpt>
      <trkpt lat="38.45217" lon="14.9594">
        <ele>107.324341</ele>
        <time>2013-09-12T15:40:59Z</time>
      </trkpt>
      <trkpt lat="38.4524" lon="14.95955">
        <ele>106.843628</ele>
        <time>2013-09-12T15:41:20Z</time>
      </trkpt>
      <trkpt lat="38.4527" lon="14.95955">
        <ele>105.882446</ele>
        <time>2013-09-12T15:41:45Z</time>
      </trkpt>
      <trkpt lat="38.45277" lon="14.95952">
        <ele>105.882446</ele>
        <time>2013-09-12T15:42:03Z</time>
      </trkpt>
      <trkpt lat="38.45303" lon="14.95928">
        <ele>105.401733</ele>
        <time>2013-09-12T15:42:28Z</time>
      </trkpt>
      <trkpt lat="38.45326" lon="14.95893">
        <ele>104.921021</ele>
        <time>2013-09-12T15:42:55Z</time>
      </trkpt>
      <trkpt lat="38.45342" lon="14.9586">
        <ele>103.959717</ele>
        <time>2013-09-12T15:43:18Z</time>
      </trkpt>
      <trkpt lat="38.45366" lon="14.95842">
        <ele>102.998291</ele>
        <time>2013-09-12T15:43:39Z</time>
      </trkpt>
      <trkpt lat="38.45396" lon="14.95839">
        <ele>101.075684</ele>
        <time>2013-09-12T15:44:02Z</time>
      </trkpt>
      <trkpt lat="38.45417" lon="14.95838">
        <ele>99.153076</ele>
        <time>2013-09-12T15:44:19Z</time>
      </trkpt>
      <trkpt lat="38.45435" lon="14.95824">
        <ele>96.269287</ele>
        <time>2013-09-12T15:44:38Z</time>
      </trkpt>
      <trkpt lat="38.45447" lon="14.95805">
        <ele>93.865845</ele>
        <time>2013-09-12T15:44:56Z</time>
      </trkpt>
      <trkpt lat="38.4545" lon="14.95799">
        <ele>92.42395</ele>
        <time>2013-09-12T15:45:01Z</time>
      </trkpt>
      <trkpt lat="38.45455" lon="14.9579">
        <ele>91.943237</ele>
        <time>2013-09-12T15:45:16Z</time>
      </trkpt>
      <trkpt lat="38.45457" lon="14.95786">
        <ele>90.501343</ele>
        <time>2013-09-12T15:45:19Z</time>
      </trkpt>
      <trkpt lat="38.45469" lon="14.95762">
        <ele>89.059326</ele>
        <time>2013-09-12T15:45:39Z</time>
      </trkpt>
      <trkpt lat="38.45477" lon="14.95744">
        <ele>85.69458</ele>
        <time>2013-09-12T15:45:54Z</time>
      </trkpt>
      <trkpt lat="38.45485" lon="14.95721">
        <ele>83.291382</ele>
        <time>2013-09-12T15:46:13Z</time>
      </trkpt>
      <trkpt lat="38.45499" lon="14.95698">
        <ele>79.926636</ele>
        <time>2013-09-12T15:46:34Z</time>
      </trkpt>
      <trkpt lat="38.45505" lon="14.95694">
        <ele>78.965454</ele>
        <time>2013-09-12T15:46:41Z</time>
      </trkpt>
      <trkpt lat="38.45511" lon="14.95692">
        <ele>77.523438</ele>
        <time>2013-09-12T15:46:47Z</time>
      </trkpt>
      <trkpt lat="38.45526" lon="14.95691">
        <ele>74.158813</ele>
        <time>2013-09-12T15:47:02Z</time>
      </trkpt>
      <trkpt lat="38.4555" lon="14.95694">
        <ele>69.352295</ele>
        <time>2013-09-12T15:47:21Z</time>
      </trkpt>
      <trkpt lat="38.45552" lon="14.95694">
        <ele>73.197632</ele>
        <time>2013-09-12T15:47:23Z</time>
      </trkpt>
      <trkpt lat="38.45564" lon="14.95696">
        <ele>69.832886</ele>
        <time>2013-09-12T15:47:32Z</time>
      </trkpt>
      <trkpt lat="38.45597" lon="14.95699">
        <ele>68.871582</ele>
        <time>2013-09-12T15:47:56Z</time>
      </trkpt>
      <trkpt lat="38.45628" lon="14.95708">
        <ele>68.390869</ele>
        <time>2013-09-12T15:48:19Z</time>
      </trkpt>
      <trkpt lat="38.45655" lon="14.9572">
        <ele>67.910278</ele>
        <time>2013-09-12T15:48:40Z</time>
      </trkpt>
      <trkpt lat="38.45682" lon="14.95733">
        <ele>66.468262</ele>
        <time>2013-09-12T15:49:01Z</time>
      </trkpt>
      <trkpt lat="38.45712" lon="14.95747">
        <ele>65.026367</ele>
        <time>2013-09-12T15:49:25Z</time>
      </trkpt>
      <trkpt lat="38.45741" lon="14.95751">
        <ele>62.622925</ele>
        <time>2013-09-12T15:49:48Z</time>
      </trkpt>
      <trkpt lat="38.45767" lon="14.95738">
        <ele>62.142334</ele>
        <time>2013-09-12T15:50:09Z</time>
      </trkpt>
      <trkpt lat="38.45775" lon="14.95733">
        <ele>61.18103</ele>
        <time>2013-09-12T15:50:17Z</time>
      </trkpt>
      <trkpt lat="38.45779" lon="14.95731">
        <ele>61.18103</ele>
        <time>2013-09-12T15:50:24Z</time>
      </trkpt>
      <trkpt lat="38.45794" lon="14.95698">
        <ele>60.219727</ele>
        <time>2013-09-12T15:50:48Z</time>
      </trkpt>
      <trkpt lat="38.45802" lon="14.95661">
        <ele>58.77771</ele>
        <time>2013-09-12T15:51:10Z</time>
      </trkpt>
      <trkpt lat="38.45803" lon="14.95625">
        <ele>56.374512</ele>
        <time>2013-09-12T15:51:31Z</time>
      </trkpt>
      <trkpt lat="38.45802" lon="14.95599">
        <ele>54.451782</ele>
        <time>2013-09-12T15:51:48Z</time>
      </trkpt>
      <trkpt lat="38.45804" lon="14.95573">
        <ele>53.009766</ele>
        <time>2013-09-12T15:52:04Z</time>
      </trkpt>
      <trkpt lat="38.45826" lon="14.95565">
        <ele>50.125977</ele>
        <time>2013-09-12T15:52:23Z</time>
      </trkpt>
      <trkpt lat="38.45836" lon="14.95599">
        <ele>49.164551</ele>
        <time>2013-09-12T15:52:43Z</time>
      </trkpt>
      <trkpt lat="38.45848" lon="14.95643">
        <ele>46.76123</ele>
        <time>2013-09-12T15:53:10Z</time>
      </trkpt>
      <trkpt lat="38.4587" lon="14.9565">
        <ele>43.877319</ele>
        <time>2013-09-12T15:53:26Z</time>
      </trkpt>
      <trkpt lat="38.45907" lon="14.95648">
        <ele>41.954712</ele>
        <time>2013-09-12T15:53:51Z</time>
      </trkpt>
      <trkpt lat="38.45918" lon="14.95644">
        <ele>41.954712</ele>
        <time>2013-09-12T15:54:07Z</time>
      </trkpt>
      <trkpt lat="38.45917" lon="14.95655">
        <ele>39.070679</ele>
        <time>2013-09-12T15:54:22Z</time>
      </trkpt>
      <trkpt lat="38.45923" lon="14.95661">
        <ele>35.706055</ele>
        <time>2013-09-12T15:54:38Z</time>
      </trkpt>
      <trkpt lat="38.45925" lon="14.95671">
        <ele>32.341553</ele>
        <time>2013-09-12T15:54:51Z</time>
      </trkpt>
      <trkpt lat="38.45924" lon="14.95682">
        <ele>29.93811</ele>
        <time>2013-09-12T15:55:07Z</time>
      </trkpt>
      <trkpt lat="38.45922" lon="14.95681">
        <ele>29.45752</ele>
        <time>2013-09-12T15:55:10Z</time>
      </trkpt>
      <trkpt lat="38.45922" lon="14.95689">
        <ele>28.976929</ele>
        <time>2013-09-12T15:55:15Z</time>
      </trkpt>
      <trkpt lat="38.45919" lon="14.95694">
        <ele>28.496216</ele>
        <time>2013-09-12T15:55:29Z</time>
      </trkpt>
      <trkpt lat="38.45918" lon="14.95694">
        <ele>28.496216</ele>
        <time>2013-09-12T15:55:35Z</time>
      </trkpt>
      <trkpt lat="38.45893" lon="14.95697">
        <ele>28.496216</ele>
        <time>2013-09-12T15:55:56Z</time>
      </trkpt>
      <trkpt lat="38.45888" lon="14.95697">
        <ele>28.496216</ele>
        <time>2013-09-12T15:56:10Z</time>
      </trkpt>
      <trkpt lat="38.45898" lon="14.95697">
        <ele>31.860718</ele>
        <time>2013-09-12T15:56:26Z</time>
      </trkpt>
    </trkseg>
  </trk>
  <trk>
    <name><![CDATA[ACTIVE LOG 004]]></name>
    <trkseg>
      <trkpt lat="38.45905" lon="14.95697">
        <ele>31.860718</ele>
        <time>2013-09-12T15:56:38Z</time>
      </trkpt>
      <trkpt lat="38.45905" lon="14.95697">
        <ele>32.822266</ele>
        <time>2013-09-12T15:56:47Z</time>
      </trkpt>
      <trkpt lat="38.45905" lon="14.95697">
        <ele>31.380127</ele>
        <time>2013-09-12T15:56:58Z</time>
      </trkpt>
    </trkseg>
  </trk>
</gpx>